createdAt,value
2019-03-13T00:00:35.614Z,0
2019-03-13T00:01:16.204Z,0
2019-03-13T00:01:56.794Z,0
2019-03-13T00:02:37.448Z,0
2019-03-13T00:03:18.062Z,0
2019-03-13T00:03:58.685Z,0
2019-03-13T00:04:39.353Z,0
2019-03-13T00:05:19.965Z,0
2019-03-13T00:06:00.560Z,0
2019-03-13T00:06:41.185Z,0
2019-03-13T00:07:21.838Z,0
2019-03-13T00:08:02.445Z,0
2019-03-13T00:08:43.047Z,0
2019-03-13T00:09:23.635Z,0
2019-03-13T00:10:04.227Z,0
2019-03-13T00:10:44.825Z,0
2019-03-13T00:11:25.437Z,0
2019-03-13T00:12:06.205Z,0
2019-03-13T00:12:46.840Z,0
2019-03-13T00:13:27.453Z,0
2019-03-13T00:14:08.054Z,0
2019-03-13T00:14:48.657Z,0
2019-03-13T00:15:29.279Z,0
2019-03-13T00:16:11.843Z,0
2019-03-13T00:16:52.659Z,0
2019-03-13T00:17:33.261Z,0
2019-03-13T00:18:13.851Z,0
2019-03-13T00:18:54.443Z,0
2019-03-13T00:19:35.061Z,0
2019-03-13T00:20:15.671Z,0
2019-03-13T00:20:56.304Z,0
2019-03-13T00:21:36.913Z,0
2019-03-13T00:22:17.519Z,0
2019-03-13T00:22:58.105Z,0
2019-03-13T00:23:38.712Z,0
2019-03-13T00:24:19.297Z,0
2019-03-13T00:25:00.098Z,0
2019-03-13T00:25:40.692Z,0
2019-03-13T00:26:21.293Z,0
2019-03-13T00:27:01.931Z,0
2019-03-13T00:27:42.527Z,0
2019-03-13T00:28:23.153Z,0
2019-03-13T00:29:03.761Z,0
2019-03-13T00:29:44.354Z,0
2019-03-13T00:30:26.503Z,0
2019-03-13T00:31:07.093Z,0
2019-03-13T00:31:47.699Z,0
2019-03-13T00:32:28.355Z,0
2019-03-13T00:33:10.350Z,0
2019-03-13T00:33:50.948Z,0
2019-03-13T00:34:31.709Z,0
2019-03-13T00:35:12.213Z,0
2019-03-13T00:35:52.807Z,0
2019-03-13T00:36:33.450Z,0
2019-03-13T00:37:14.052Z,0
2019-03-13T00:37:54.631Z,0
2019-03-13T00:38:35.217Z,0
2019-03-13T00:39:15.833Z,0
2019-03-13T00:39:56.418Z,0
2019-03-13T00:40:37.009Z,0
2019-03-13T00:41:17.601Z,0
2019-03-13T00:41:58.256Z,0
2019-03-13T00:42:38.875Z,0
2019-03-13T00:43:20.287Z,0
2019-03-13T00:44:01.376Z,0
2019-03-13T00:44:42.286Z,0
2019-03-13T00:45:22.890Z,0
2019-03-13T00:46:03.508Z,0
2019-03-13T00:46:44.107Z,0
2019-03-13T00:47:24.709Z,0
2019-03-13T00:48:05.366Z,0
2019-03-13T00:48:45.969Z,0
2019-03-13T00:49:27.045Z,0
2019-03-13T00:50:07.644Z,0
2019-03-13T00:50:48.249Z,0
2019-03-13T00:51:28.882Z,0
2019-03-13T00:52:09.487Z,0
2019-03-13T00:52:50.123Z,0
2019-03-13T00:53:30.715Z,0
2019-03-13T00:54:11.300Z,0
2019-03-13T00:54:51.979Z,0
2019-03-13T00:55:32.566Z,0
2019-03-13T00:56:13.158Z,0
2019-03-13T00:56:53.759Z,0
2019-03-13T00:57:34.362Z,0
2019-03-13T00:58:15.640Z,0
2019-03-13T00:58:56.250Z,0
2019-03-13T00:59:36.879Z,0
2019-03-13T01:00:17.475Z,0
2019-03-13T01:00:58.078Z,0
2019-03-13T01:01:38.733Z,0
2019-03-13T01:02:19.331Z,0
2019-03-13T01:02:59.920Z,0
2019-03-13T01:03:40.502Z,0
2019-03-13T01:04:21.205Z,0
2019-03-13T01:05:01.788Z,0
2019-03-13T01:05:42.403Z,0
2019-03-13T01:06:23.002Z,0
2019-03-13T01:07:03.604Z,0
2019-03-13T01:07:44.202Z,0
2019-03-13T01:08:24.790Z,0
2019-03-13T01:09:05.396Z,0
2019-03-13T01:09:45.997Z,0
2019-03-13T01:10:26.634Z,0
2019-03-13T01:11:07.255Z,0
2019-03-13T01:11:47.838Z,0
2019-03-13T01:12:28.450Z,0
2019-03-13T01:13:09.049Z,0
2019-03-13T01:13:49.650Z,0
2019-03-13T01:14:30.268Z,0
2019-03-13T01:15:10.856Z,0
2019-03-13T01:15:51.443Z,0
2019-03-13T01:16:32.045Z,0
2019-03-13T01:17:12.638Z,0
2019-03-13T01:17:53.230Z,0
2019-03-13T01:18:33.819Z,0
2019-03-13T01:19:14.456Z,0
2019-03-13T01:19:55.058Z,0
2019-03-13T01:20:35.759Z,0
2019-03-13T01:21:16.358Z,0
2019-03-13T01:21:56.955Z,0
2019-03-13T01:22:37.604Z,0
2019-03-13T01:23:18.200Z,0
2019-03-13T01:23:58.806Z,0
2019-03-13T01:24:39.400Z,0
2019-03-13T01:25:20.002Z,0
2019-03-13T01:26:00.591Z,0
2019-03-13T01:26:41.198Z,0
2019-03-13T01:27:21.796Z,0
2019-03-13T01:28:02.392Z,0
2019-03-13T01:28:42.979Z,0
2019-03-13T01:29:23.585Z,0
2019-03-13T01:30:04.208Z,0
2019-03-13T01:30:44.801Z,0
2019-03-13T01:31:25.401Z,0
2019-03-13T01:32:05.999Z,0
2019-03-13T01:32:46.598Z,0
2019-03-13T01:33:27.196Z,0
2019-03-13T01:34:07.780Z,0
2019-03-13T01:34:48.368Z,0
2019-03-13T01:35:28.970Z,0
2019-03-13T01:36:09.566Z,0
2019-03-13T01:36:50.192Z,0
2019-03-13T01:37:30.823Z,0
2019-03-13T01:38:11.427Z,0
2019-03-13T01:38:52.057Z,0
2019-03-13T01:39:32.708Z,0
2019-03-13T01:40:13.296Z,0
2019-03-13T01:40:53.896Z,0
2019-03-13T01:41:34.490Z,0
2019-03-13T01:42:15.088Z,0
2019-03-13T01:42:55.692Z,0
2019-03-13T01:43:36.296Z,0
2019-03-13T01:44:16.892Z,0
2019-03-13T01:44:57.512Z,0
2019-03-13T01:45:38.144Z,0
2019-03-13T01:46:18.780Z,0
2019-03-13T01:46:59.399Z,0
2019-03-13T01:47:39.992Z,0
2019-03-13T01:48:20.608Z,0
2019-03-13T01:49:01.214Z,0
2019-03-13T01:49:41.814Z,0
2019-03-13T01:50:22.420Z,0
2019-03-13T01:51:03.016Z,0
2019-03-13T01:51:43.624Z,0
2019-03-13T01:52:24.202Z,0
2019-03-13T01:53:04.796Z,0
2019-03-13T01:53:45.390Z,0
2019-03-13T01:54:25.988Z,0
2019-03-13T01:55:06.572Z,0
2019-03-13T01:55:47.166Z,0
2019-03-13T01:56:27.766Z,0
2019-03-13T01:57:08.374Z,0
2019-03-13T01:57:48.968Z,0
2019-03-13T01:58:29.602Z,0
2019-03-13T01:59:10.202Z,0
2019-03-13T01:59:50.801Z,0
2019-03-13T02:00:31.385Z,0
2019-03-13T02:01:11.978Z,0
2019-03-13T02:01:52.560Z,0
2019-03-13T02:02:33.148Z,0
2019-03-13T02:03:13.744Z,0
2019-03-13T02:03:54.342Z,0
2019-03-13T02:04:34.939Z,0
2019-03-13T02:05:15.553Z,0
2019-03-13T02:05:56.123Z,0
2019-03-13T02:06:36.717Z,0
2019-03-13T02:07:17.324Z,0
2019-03-13T02:07:57.918Z,0
2019-03-13T02:08:38.519Z,0
2019-03-13T02:09:19.116Z,0
2019-03-13T02:09:59.720Z,0
2019-03-13T02:10:40.309Z,0
2019-03-13T02:11:20.912Z,0
2019-03-13T02:12:01.494Z,0
2019-03-13T02:12:42.094Z,0
2019-03-13T02:13:22.680Z,0
2019-03-13T02:14:03.312Z,0
2019-03-13T02:14:43.914Z,0
2019-03-13T02:15:24.516Z,0
2019-03-13T02:16:05.120Z,0
2019-03-13T02:16:45.730Z,0
2019-03-13T02:17:26.328Z,0
2019-03-13T02:18:06.912Z,0
2019-03-13T02:18:47.520Z,0
2019-03-13T02:19:28.114Z,0
2019-03-13T02:20:08.706Z,0
2019-03-13T02:20:49.298Z,0
2019-03-13T02:21:29.942Z,0
2019-03-13T02:22:10.498Z,0
2019-03-13T02:22:51.119Z,0
2019-03-13T02:23:31.710Z,0
2019-03-13T02:24:12.303Z,0
2019-03-13T02:24:54.128Z,0
2019-03-13T02:25:33.496Z,0
2019-03-13T02:26:14.086Z,0
2019-03-13T02:26:54.712Z,0
2019-03-13T02:27:35.302Z,0
2019-03-13T02:28:16.011Z,0
2019-03-13T02:28:56.532Z,0
2019-03-13T02:29:37.110Z,0
2019-03-13T02:30:17.720Z,0
2019-03-13T02:30:58.317Z,0
2019-03-13T02:31:38.930Z,0
2019-03-13T02:32:19.518Z,0
2019-03-13T02:33:00.131Z,0
2019-03-13T02:33:40.705Z,0
2019-03-13T02:34:21.295Z,0
2019-03-13T02:35:01.875Z,0
2019-03-13T02:35:42.449Z,0
2019-03-13T02:36:23.093Z,0
2019-03-13T02:37:03.708Z,0
2019-03-13T02:37:44.306Z,0
2019-03-13T02:38:24.916Z,0
2019-03-13T02:39:05.512Z,0
2019-03-13T02:39:46.100Z,0
2019-03-13T02:40:26.717Z,0
2019-03-13T02:41:07.318Z,0
2019-03-13T02:41:49.813Z,0
2019-03-13T02:42:30.396Z,0
2019-03-13T02:43:11.003Z,0
2019-03-13T02:43:51.624Z,0
2019-03-13T02:44:32.272Z,0
2019-03-13T02:45:12.860Z,0
2019-03-13T02:45:53.479Z,0
2019-03-13T02:46:34.058Z,0
2019-03-13T02:47:18.539Z,0
2019-03-13T02:47:55.243Z,0
2019-03-13T02:48:35.832Z,0
2019-03-13T02:49:16.440Z,0
2019-03-13T02:49:57.039Z,0
2019-03-13T02:50:37.634Z,0
2019-03-13T02:51:18.247Z,0
2019-03-13T02:51:58.829Z,0
2019-03-13T02:52:39.440Z,0
2019-03-13T02:53:20.033Z,0
2019-03-13T02:54:00.637Z,0
2019-03-13T02:54:41.214Z,0
2019-03-13T02:55:21.803Z,0
2019-03-13T02:56:02.418Z,0
2019-03-13T02:56:43.006Z,0
2019-03-13T02:57:23.622Z,0
2019-03-13T02:58:04.201Z,0
2019-03-13T02:58:44.794Z,0
2019-03-13T02:59:25.402Z,0
2019-03-13T03:00:05.998Z,0
2019-03-13T03:00:46.585Z,0
2019-03-13T03:01:27.185Z,0
2019-03-13T03:02:07.784Z,0
2019-03-13T03:02:48.379Z,0
2019-03-13T03:03:28.972Z,0
2019-03-13T03:04:09.564Z,0
2019-03-13T03:04:50.160Z,0
2019-03-13T03:05:30.751Z,0
2019-03-13T03:06:11.349Z,0
2019-03-13T03:06:51.929Z,0
2019-03-13T03:07:32.579Z,0
2019-03-13T03:08:13.192Z,0
2019-03-13T03:08:53.799Z,0
2019-03-13T03:09:34.411Z,0
2019-03-13T03:10:15.023Z,0
2019-03-13T03:10:55.612Z,0
2019-03-13T03:11:36.209Z,0
2019-03-13T03:12:16.786Z,0
2019-03-13T03:12:57.888Z,0
2019-03-13T03:13:37.970Z,0
2019-03-13T03:14:18.587Z,0
2019-03-13T03:14:59.198Z,0
2019-03-13T03:15:39.853Z,0
2019-03-13T03:16:20.459Z,0
2019-03-13T03:17:01.051Z,0
2019-03-13T03:17:41.646Z,0
2019-03-13T03:18:22.305Z,0
2019-03-13T03:19:02.851Z,0
2019-03-13T03:19:43.430Z,0
2019-03-13T03:20:24.030Z,0
2019-03-13T03:21:04.628Z,0
2019-03-13T03:21:45.234Z,0
2019-03-13T03:22:25.835Z,0
2019-03-13T03:23:06.478Z,0
2019-03-13T03:23:48.724Z,0
2019-03-13T03:24:29.330Z,0
2019-03-13T03:25:09.923Z,0
2019-03-13T03:25:50.531Z,0
2019-03-13T03:26:31.133Z,0
2019-03-13T03:27:11.735Z,0
2019-03-13T03:27:52.332Z,0
2019-03-13T03:28:32.939Z,0
2019-03-13T03:29:13.533Z,0
2019-03-13T03:29:54.217Z,0
2019-03-13T03:30:34.734Z,0
2019-03-13T03:31:15.303Z,0
2019-03-13T03:31:55.895Z,0
2019-03-13T03:32:36.541Z,0
2019-03-13T03:33:17.086Z,0
2019-03-13T03:33:57.711Z,0
2019-03-13T03:34:38.309Z,0
2019-03-13T03:35:18.975Z,0
2019-03-13T03:35:59.511Z,0
2019-03-13T03:36:40.117Z,0
2019-03-13T03:37:20.740Z,0
2019-03-13T03:38:01.319Z,0
2019-03-13T03:38:41.903Z,0
2019-03-13T03:39:22.519Z,0
2019-03-13T03:40:03.106Z,0
2019-03-13T03:40:43.699Z,0
2019-03-13T03:41:24.295Z,0
2019-03-13T03:42:04.889Z,0
2019-03-13T03:42:45.493Z,0
2019-03-13T03:43:39.124Z,0
2019-03-13T03:44:06.673Z,0
2019-03-13T03:44:47.263Z,0
2019-03-13T03:45:27.849Z,0
2019-03-13T03:46:08.446Z,0
2019-03-13T03:46:49.053Z,0
2019-03-13T03:47:29.645Z,0
2019-03-13T03:48:10.272Z,0
2019-03-13T03:48:50.854Z,0
2019-03-13T03:49:31.477Z,0
2019-03-13T03:50:12.101Z,0
2019-03-13T03:50:52.679Z,0
2019-03-13T03:51:33.264Z,0
2019-03-13T03:52:13.878Z,0
2019-03-13T03:52:54.499Z,0
2019-03-13T03:53:35.067Z,0
2019-03-13T03:54:15.652Z,0
2019-03-13T03:54:56.247Z,0
2019-03-13T03:55:36.841Z,0
2019-03-13T03:56:17.436Z,0
2019-03-13T03:56:58.024Z,0
2019-03-13T03:57:38.651Z,0
2019-03-13T03:58:19.207Z,0
2019-03-13T03:58:59.806Z,0
2019-03-13T03:59:40.399Z,0
2019-03-13T04:00:21.127Z,0
2019-03-13T04:01:01.583Z,0
2019-03-13T04:01:42.175Z,0
2019-03-13T04:02:22.776Z,0
2019-03-13T04:03:03.361Z,0
2019-03-13T04:03:43.977Z,0
2019-03-13T04:04:24.561Z,0
2019-03-13T04:05:05.155Z,0
2019-03-13T04:05:45.733Z,0
2019-03-13T04:06:26.361Z,0
2019-03-13T04:07:06.973Z,0
2019-03-13T04:07:47.600Z,0
2019-03-13T04:08:28.185Z,0
2019-03-13T04:09:08.812Z,0
2019-03-13T04:09:49.415Z,0
2019-03-13T04:10:30.001Z,0
2019-03-13T04:11:10.591Z,0
2019-03-13T04:11:51.181Z,0
2019-03-13T04:12:31.772Z,0
2019-03-13T04:13:12.389Z,0
2019-03-13T04:13:52.987Z,0
2019-03-13T04:14:33.581Z,0
2019-03-13T04:15:14.175Z,0
2019-03-13T04:15:54.775Z,0
2019-03-13T04:16:35.413Z,0
2019-03-13T04:17:16.002Z,0
2019-03-13T04:17:58.364Z,0
2019-03-13T04:18:38.961Z,0
2019-03-13T04:19:19.543Z,0
2019-03-13T04:20:00.172Z,0
2019-03-13T04:20:40.729Z,0
2019-03-13T04:21:21.337Z,0
2019-03-13T04:22:01.924Z,0
2019-03-13T04:22:42.523Z,0
2019-03-13T04:23:23.124Z,0
2019-03-13T04:24:03.719Z,0
2019-03-13T04:24:44.314Z,0
2019-03-13T04:25:24.914Z,0
2019-03-13T04:26:05.506Z,0
2019-03-13T04:26:46.144Z,0
2019-03-13T04:27:26.743Z,0
2019-03-13T04:28:07.326Z,0
2019-03-13T04:28:47.930Z,0
2019-03-13T04:29:28.514Z,0
2019-03-13T04:30:09.119Z,0
2019-03-13T04:30:49.717Z,0
2019-03-13T04:31:30.317Z,0
2019-03-13T04:32:10.907Z,0
2019-03-13T04:32:51.533Z,0
2019-03-13T04:33:32.129Z,0
2019-03-13T04:34:12.715Z,0
2019-03-13T04:34:53.310Z,0
2019-03-13T04:35:33.901Z,0
2019-03-13T04:36:14.533Z,0
2019-03-13T04:36:55.135Z,0
2019-03-13T04:37:35.731Z,0
2019-03-13T04:38:16.306Z,0
2019-03-13T04:38:56.890Z,0
2019-03-13T04:39:37.483Z,0
2019-03-13T04:40:18.085Z,0
2019-03-13T04:40:58.687Z,0
2019-03-13T04:41:39.293Z,0
2019-03-13T04:42:19.891Z,0
2019-03-13T04:43:00.481Z,0
2019-03-13T04:43:41.087Z,0
2019-03-13T04:44:21.703Z,0
2019-03-13T04:45:02.291Z,0
2019-03-13T04:45:42.877Z,0
2019-03-13T04:46:23.505Z,0
2019-03-13T04:47:04.094Z,0
2019-03-13T04:47:44.714Z,0
2019-03-13T04:48:25.313Z,0
2019-03-13T04:49:05.925Z,0
2019-03-13T04:49:46.591Z,0
2019-03-13T04:50:27.129Z,0
2019-03-13T04:51:07.724Z,0
2019-03-13T04:51:48.325Z,0
2019-03-13T04:52:28.935Z,0
2019-03-13T04:53:09.520Z,0
2019-03-13T04:53:50.127Z,0
2019-03-13T04:54:30.721Z,0
2019-03-13T04:55:11.321Z,0
2019-03-13T04:55:52.627Z,0
2019-03-13T04:56:32.520Z,0
2019-03-13T04:57:13.099Z,0
2019-03-13T04:57:53.688Z,0
2019-03-13T04:58:34.279Z,0
2019-03-13T04:59:14.896Z,0
2019-03-13T04:59:55.482Z,0
2019-03-13T05:00:36.091Z,0
2019-03-13T05:01:16.681Z,0
2019-03-13T05:01:57.295Z,0
2019-03-13T05:02:37.933Z,0
2019-03-13T05:03:18.553Z,0
2019-03-13T05:03:59.149Z,0
2019-03-13T05:04:39.747Z,0
2019-03-13T05:05:20.335Z,0
2019-03-13T05:06:00.951Z,0
2019-03-13T05:06:41.559Z,0
2019-03-13T05:07:22.151Z,0
2019-03-13T05:08:02.747Z,0
2019-03-13T05:08:45.263Z,0
2019-03-13T05:09:23.983Z,0
2019-03-13T05:10:04.586Z,0
2019-03-13T05:10:45.181Z,0
2019-03-13T05:11:25.780Z,0
2019-03-13T05:12:06.383Z,0
2019-03-13T05:12:46.990Z,0
2019-03-13T05:13:27.568Z,0
2019-03-13T05:14:08.170Z,0
2019-03-13T05:14:48.883Z,0
2019-03-13T05:15:29.479Z,0
2019-03-13T05:16:10.179Z,0
2019-03-13T05:16:50.659Z,0
2019-03-13T05:17:31.259Z,0
2019-03-13T05:18:11.855Z,0
2019-03-13T05:18:52.439Z,0
2019-03-13T05:19:33.133Z,0
2019-03-13T05:20:13.950Z,0
2019-03-13T05:20:54.255Z,0
2019-03-13T05:21:34.847Z,0
2019-03-13T05:22:15.444Z,0
2019-03-13T05:22:56.059Z,0
2019-03-13T05:23:36.655Z,0
2019-03-13T05:24:17.248Z,0
2019-03-13T05:24:57.859Z,0
2019-03-13T05:25:38.452Z,0
2019-03-13T05:26:19.069Z,0
2019-03-13T05:26:59.651Z,0
2019-03-13T05:27:40.245Z,0
2019-03-13T05:28:20.835Z,0
2019-03-13T05:29:01.429Z,0
2019-03-13T05:29:42.029Z,0
2019-03-13T05:30:22.630Z,0
2019-03-13T05:31:03.224Z,0
2019-03-13T05:31:43.829Z,0
2019-03-13T05:32:24.421Z,0
2019-03-13T05:33:05.025Z,0
2019-03-13T05:33:45.616Z,0
2019-03-13T05:34:26.207Z,0
2019-03-13T05:35:06.814Z,0
2019-03-13T05:35:47.399Z,0
2019-03-13T05:36:28.021Z,0
2019-03-13T05:37:08.604Z,0
2019-03-13T05:37:49.224Z,0
2019-03-13T05:38:29.811Z,0
2019-03-13T05:39:10.415Z,0
2019-03-13T05:39:51.017Z,0
2019-03-13T05:40:31.603Z,0
2019-03-13T05:41:12.199Z,0
2019-03-13T05:41:52.805Z,0
2019-03-13T05:42:33.399Z,0
2019-03-13T05:43:13.999Z,0
2019-03-13T05:43:54.587Z,0
2019-03-13T05:44:35.185Z,0
2019-03-13T05:45:15.792Z,0
2019-03-13T05:45:56.379Z,0
2019-03-13T05:46:36.981Z,0
2019-03-13T05:47:17.577Z,0
2019-03-13T05:47:58.173Z,0
2019-03-13T05:48:38.767Z,0
2019-03-13T05:49:19.398Z,0
2019-03-13T05:49:59.987Z,0
2019-03-13T05:50:40.585Z,0
2019-03-13T05:51:21.171Z,0
2019-03-13T05:52:01.764Z,0
2019-03-13T05:52:42.383Z,0
2019-03-13T05:53:22.984Z,0
2019-03-13T05:54:03.561Z,0
2019-03-13T05:54:44.141Z,0
2019-03-13T05:55:24.830Z,0
2019-03-13T05:56:05.453Z,0
2019-03-13T05:56:46.035Z,0
2019-03-13T05:57:26.611Z,0
2019-03-13T05:58:07.199Z,0
2019-03-13T05:58:47.794Z,0
2019-03-13T05:59:28.399Z,0
2019-03-13T06:00:09.055Z,0
2019-03-13T06:00:49.645Z,0
2019-03-13T06:01:30.267Z,0
2019-03-13T06:02:10.851Z,0
2019-03-13T06:02:51.439Z,0
2019-03-13T06:03:32.067Z,0
2019-03-13T06:04:12.653Z,0
2019-03-13T06:04:53.275Z,0
2019-03-13T06:05:33.915Z,0
2019-03-13T06:06:14.556Z,0
2019-03-13T06:06:55.173Z,0
2019-03-13T06:07:35.759Z,0
2019-03-13T06:08:18.446Z,0
2019-03-13T06:08:56.971Z,0
2019-03-13T06:09:37.581Z,0
2019-03-13T06:10:18.173Z,0
2019-03-13T06:10:58.767Z,0
2019-03-13T06:11:39.367Z,0
2019-03-13T06:12:19.961Z,0
2019-03-13T06:13:00.651Z,0
2019-03-13T06:13:41.243Z,0
2019-03-13T06:14:21.850Z,0
2019-03-13T06:15:03.720Z,0
2019-03-13T06:15:43.057Z,0
2019-03-13T06:16:23.734Z,0
2019-03-13T06:17:04.351Z,0
2019-03-13T06:17:44.958Z,0
2019-03-13T06:18:25.540Z,0
2019-03-13T06:19:06.129Z,0
2019-03-13T06:19:46.719Z,0
2019-03-13T06:20:27.315Z,0
2019-03-13T06:21:07.903Z,0
2019-03-13T06:21:48.493Z,0
2019-03-13T06:22:29.105Z,0
2019-03-13T06:23:09.726Z,0
2019-03-13T06:23:50.331Z,0
2019-03-13T06:24:30.921Z,0
2019-03-13T06:25:11.528Z,0
2019-03-13T06:25:52.127Z,0
2019-03-13T06:26:32.731Z,0
2019-03-13T06:27:13.328Z,0
2019-03-13T06:27:53.929Z,0
2019-03-13T06:28:34.517Z,0
2019-03-13T06:29:15.111Z,0
2019-03-13T06:29:55.706Z,0
2019-03-13T06:30:36.314Z,0
2019-03-13T06:31:16.905Z,0
2019-03-13T06:31:57.494Z,0
2019-03-13T06:32:38.087Z,0
2019-03-13T06:33:18.717Z,0
2019-03-13T06:33:59.313Z,0
2019-03-13T06:34:39.906Z,0
2019-03-13T06:35:23.511Z,0
2019-03-13T06:36:01.139Z,0
2019-03-13T06:36:41.719Z,0
2019-03-13T06:37:22.324Z,0
2019-03-13T06:38:02.961Z,0
2019-03-13T06:38:43.560Z,0
2019-03-13T06:39:24.239Z,0
2019-03-13T06:40:04.762Z,0
2019-03-13T06:40:45.339Z,0
2019-03-13T06:41:25.980Z,0
2019-03-13T06:42:06.573Z,0
2019-03-13T06:42:47.169Z,0
2019-03-13T06:43:27.793Z,0
2019-03-13T06:44:08.379Z,0
2019-03-13T06:44:48.967Z,0
2019-03-13T06:45:29.568Z,0
2019-03-13T06:46:10.183Z,0
2019-03-13T06:46:50.792Z,0
2019-03-13T06:47:31.381Z,0
2019-03-13T06:48:11.996Z,0
2019-03-13T06:48:52.596Z,0
2019-03-13T06:49:33.181Z,0
2019-03-13T06:50:13.795Z,5
2019-03-13T06:50:54.385Z,5
2019-03-13T06:51:34.975Z,0
2019-03-13T06:52:15.559Z,5
2019-03-13T06:52:56.154Z,5
2019-03-13T06:53:36.735Z,5
2019-03-13T06:54:17.346Z,5
2019-03-13T06:54:57.943Z,5
2019-03-13T06:55:38.532Z,0
2019-03-13T06:56:19.155Z,0
2019-03-13T06:56:59.769Z,0
2019-03-13T06:57:40.369Z,0
2019-03-13T06:58:20.978Z,0
2019-03-13T06:59:01.599Z,5
2019-03-13T06:59:42.206Z,5
2019-03-13T07:00:22.836Z,5
2019-03-13T07:01:03.494Z,5
2019-03-13T07:01:44.168Z,5
2019-03-13T07:02:24.889Z,5
2019-03-13T07:03:05.490Z,5
2019-03-13T07:03:46.101Z,5
2019-03-13T07:04:26.735Z,5
2019-03-13T07:05:07.354Z,5
2019-03-13T07:05:47.908Z,5
2019-03-13T07:06:28.500Z,5
2019-03-13T07:07:09.081Z,10
2019-03-13T07:07:49.666Z,10
2019-03-13T07:08:31.695Z,10
2019-03-13T07:09:12.292Z,5
2019-03-13T07:09:52.900Z,5
2019-03-13T07:10:33.496Z,5
2019-03-13T07:11:14.085Z,5
2019-03-13T07:11:54.788Z,5
2019-03-13T07:12:35.448Z,5
2019-03-13T07:13:16.050Z,5
2019-03-13T07:13:56.851Z,10
2019-03-13T07:14:37.458Z,10
2019-03-13T07:15:18.072Z,10
2019-03-13T07:15:58.674Z,10
2019-03-13T07:16:39.283Z,10
2019-03-13T07:17:19.896Z,10
2019-03-13T07:18:00.486Z,10
2019-03-13T07:18:41.119Z,10
2019-03-13T07:19:21.736Z,10
2019-03-13T07:20:02.490Z,10
2019-03-13T07:20:43.090Z,10
2019-03-13T07:21:23.824Z,10
2019-03-13T07:22:04.496Z,10
2019-03-13T07:22:45.062Z,15
2019-03-13T07:23:25.785Z,15
2019-03-13T07:24:06.415Z,15
2019-03-13T07:24:47.031Z,20
2019-03-13T07:25:27.623Z,25
2019-03-13T07:26:08.235Z,20
2019-03-13T07:26:51.285Z,20
2019-03-13T07:27:29.422Z,20
2019-03-13T07:28:10.030Z,20
2019-03-13T07:28:52.449Z,20
2019-03-13T07:29:31.216Z,15
2019-03-13T07:30:11.831Z,15
2019-03-13T07:30:52.456Z,15
2019-03-13T07:31:33.092Z,15
2019-03-13T07:32:13.681Z,15
2019-03-13T07:32:56.574Z,15
2019-03-13T07:33:34.905Z,15
2019-03-13T07:34:15.491Z,15
2019-03-13T07:34:56.082Z,15
2019-03-13T07:35:36.788Z,15
2019-03-13T07:36:17.381Z,15
2019-03-13T07:36:57.993Z,10
2019-03-13T07:37:38.586Z,10
2019-03-13T07:38:20.840Z,15
2019-03-13T07:39:01.438Z,15
2019-03-13T07:39:42.030Z,20
2019-03-13T07:40:22.621Z,25
2019-03-13T07:41:03.243Z,20
2019-03-13T07:41:43.832Z,20
2019-03-13T07:42:24.488Z,20
2019-03-13T07:43:05.092Z,20
2019-03-13T07:43:45.690Z,15
2019-03-13T07:44:26.278Z,15
2019-03-13T07:45:06.900Z,15
2019-03-13T07:45:47.473Z,15
2019-03-13T07:46:28.060Z,15
2019-03-13T07:47:08.659Z,15
2019-03-13T07:47:49.246Z,15
2019-03-13T07:48:29.832Z,25
2019-03-13T07:49:10.448Z,25
2019-03-13T07:49:51.106Z,30
2019-03-13T07:50:31.715Z,30
2019-03-13T07:51:12.311Z,25
2019-03-13T07:51:52.978Z,20
2019-03-13T07:52:33.568Z,25
2019-03-13T07:53:14.171Z,25
2019-03-13T07:53:54.817Z,25
2019-03-13T07:54:35.430Z,25
2019-03-13T07:55:16.050Z,25
2019-03-13T07:55:56.636Z,20
2019-03-13T07:56:37.236Z,20
2019-03-13T07:57:17.870Z,20
2019-03-13T07:57:58.471Z,20
2019-03-13T07:58:39.056Z,20
2019-03-13T07:59:19.636Z,20
2019-03-13T08:00:00.360Z,20
2019-03-13T08:00:40.814Z,20
2019-03-13T08:01:21.418Z,20
2019-03-13T08:02:02.057Z,20
2019-03-13T08:02:42.640Z,20
2019-03-13T08:03:23.248Z,20
2019-03-13T08:04:05.191Z,20
2019-03-13T08:04:44.525Z,20
2019-03-13T08:05:25.125Z,20
2019-03-13T08:06:05.717Z,20
2019-03-13T08:06:46.319Z,20
2019-03-13T08:07:26.977Z,20
2019-03-13T08:08:07.666Z,20
2019-03-13T08:08:48.263Z,20
2019-03-13T08:09:28.886Z,20
2019-03-13T08:10:09.493Z,20
2019-03-13T08:10:50.184Z,20
2019-03-13T08:11:30.820Z,20
2019-03-13T08:12:11.417Z,20
2019-03-13T08:12:52.064Z,20
2019-03-13T08:13:32.663Z,20
2019-03-13T08:14:13.283Z,20
2019-03-13T08:14:53.896Z,20
2019-03-13T08:15:34.502Z,20
2019-03-13T08:16:15.089Z,20
2019-03-13T08:16:55.702Z,20
2019-03-13T08:17:36.304Z,20
2019-03-13T08:18:16.999Z,20
2019-03-13T08:18:57.602Z,20
2019-03-13T08:19:38.187Z,20
2019-03-13T08:20:18.778Z,20
2019-03-13T08:20:59.372Z,15
2019-03-13T08:21:39.972Z,15
2019-03-13T08:22:20.572Z,15
2019-03-13T08:23:01.192Z,15
2019-03-13T08:23:41.786Z,15
2019-03-13T08:24:22.371Z,15
2019-03-13T08:25:02.980Z,15
2019-03-13T08:25:43.574Z,15
2019-03-13T08:26:24.165Z,15
2019-03-13T08:27:04.752Z,15
2019-03-13T08:27:45.348Z,15
2019-03-13T08:28:25.942Z,15
2019-03-13T08:29:06.545Z,20
2019-03-13T08:29:47.139Z,15
2019-03-13T08:30:27.741Z,15
2019-03-13T08:31:08.370Z,20
2019-03-13T08:31:48.970Z,20
2019-03-13T08:32:29.586Z,20
2019-03-13T08:33:10.197Z,20
2019-03-13T08:33:50.798Z,20
2019-03-13T08:34:31.401Z,25
2019-03-13T08:35:12.009Z,25
2019-03-13T08:35:52.597Z,25
2019-03-13T08:36:33.310Z,25
2019-03-13T08:37:13.920Z,25
2019-03-13T08:37:54.510Z,25
2019-03-13T08:38:35.149Z,25
2019-03-13T08:39:15.930Z,25
2019-03-13T08:39:56.481Z,25
2019-03-13T08:40:37.083Z,20
2019-03-13T08:41:17.747Z,20
2019-03-13T08:41:58.322Z,20
2019-03-13T08:42:38.930Z,20
2019-03-13T08:43:19.538Z,20
2019-03-13T08:44:00.148Z,20
2019-03-13T08:44:40.780Z,20
2019-03-13T08:45:21.370Z,20
2019-03-13T08:46:01.978Z,20
2019-03-13T08:46:42.562Z,20
2019-03-13T08:47:23.189Z,25
2019-03-13T08:48:03.797Z,25
2019-03-13T08:48:44.390Z,20
2019-03-13T08:49:24.993Z,25
2019-03-13T08:50:05.595Z,25
2019-03-13T08:50:46.185Z,20
2019-03-13T08:51:26.772Z,20
2019-03-13T08:52:07.364Z,20
2019-03-13T08:52:47.968Z,20
2019-03-13T08:53:28.568Z,20
2019-03-13T08:54:09.183Z,20
2019-03-13T08:54:49.783Z,20
2019-03-13T08:55:30.416Z,20
2019-03-13T08:56:11.034Z,20
2019-03-13T08:56:51.747Z,20
2019-03-13T08:57:32.341Z,20
2019-03-13T08:58:13.135Z,20
2019-03-13T08:58:53.986Z,20
2019-03-13T08:59:34.568Z,20
2019-03-13T09:00:15.162Z,20
2019-03-13T09:00:55.788Z,20
2019-03-13T09:01:36.387Z,20
2019-03-13T09:02:16.996Z,25
2019-03-13T09:02:57.698Z,25
2019-03-13T09:03:38.354Z,25
2019-03-13T09:04:18.947Z,25
2019-03-13T09:04:59.582Z,25
2019-03-13T09:05:40.161Z,25
2019-03-13T09:06:20.783Z,25
2019-03-13T09:07:01.381Z,25
2019-03-13T09:07:42.042Z,25
2019-03-13T09:08:22.647Z,25
2019-03-13T09:09:03.249Z,25
2019-03-13T09:09:43.834Z,25
2019-03-13T09:10:24.443Z,25
2019-03-13T09:11:05.043Z,25
2019-03-13T09:11:45.825Z,25
2019-03-13T09:12:26.440Z,25
2019-03-13T09:13:07.095Z,25
2019-03-13T09:13:47.720Z,25
2019-03-13T09:14:30.044Z,25
2019-03-13T09:15:10.678Z,25
2019-03-13T09:15:51.294Z,25
2019-03-13T09:16:31.901Z,25
2019-03-13T09:17:12.652Z,25
2019-03-13T09:17:53.280Z,25
2019-03-13T09:18:33.981Z,25
2019-03-13T09:19:14.655Z,25
2019-03-13T09:19:55.258Z,25
2019-03-13T09:20:35.918Z,25
2019-03-13T09:21:16.516Z,25
2019-03-13T09:21:57.223Z,25
2019-03-13T09:22:37.804Z,25
2019-03-13T09:23:18.401Z,25
2019-03-13T09:23:59.062Z,25
2019-03-13T09:24:39.817Z,30
2019-03-13T09:25:20.427Z,30
2019-03-13T09:26:01.026Z,30
2019-03-13T09:26:41.670Z,30
2019-03-13T09:27:22.394Z,30
2019-03-13T09:28:03.023Z,30
2019-03-13T09:28:43.604Z,30
2019-03-13T09:29:24.298Z,30
2019-03-13T09:30:04.994Z,30
2019-03-13T09:30:45.629Z,30
2019-03-13T09:31:26.200Z,30
2019-03-13T09:32:06.872Z,30
2019-03-13T09:32:47.481Z,30
2019-03-13T09:33:28.352Z,30
2019-03-13T09:34:09.024Z,30
2019-03-13T09:34:49.668Z,30
2019-03-13T09:35:30.280Z,30
2019-03-13T09:36:10.934Z,30
2019-03-13T09:36:51.542Z,30
2019-03-13T09:37:32.150Z,30
2019-03-13T09:38:12.777Z,30
2019-03-13T09:38:53.414Z,30
2019-03-13T09:39:34.128Z,30
2019-03-13T09:40:14.736Z,30
2019-03-13T09:40:55.416Z,35
2019-03-13T09:41:36.012Z,35
2019-03-13T09:42:16.732Z,35
2019-03-13T09:42:57.370Z,35
2019-03-13T09:43:37.960Z,30
2019-03-13T09:44:18.556Z,30
2019-03-13T09:44:59.134Z,30
2019-03-13T09:45:39.776Z,30
2019-03-13T09:46:20.414Z,30
2019-03-13T09:47:01.014Z,30
2019-03-13T09:47:41.618Z,30
2019-03-13T09:48:22.222Z,30
2019-03-13T09:49:02.954Z,30
2019-03-13T09:49:43.569Z,30
2019-03-13T09:50:24.158Z,30
2019-03-13T09:51:04.764Z,30
2019-03-13T09:51:45.388Z,30
2019-03-13T09:52:25.973Z,30
2019-03-13T09:53:06.579Z,30
2019-03-13T09:53:47.303Z,30
2019-03-13T09:54:27.904Z,30
2019-03-13T09:55:08.558Z,30